Terminal Aerodrome Forecast
Issued by NWS Cleveland, OH

Home | Current Version | Previous Version | Text Only | Print | Product List | Glossary Off
Versions: 1 2 3 4 5 6 7 8 9 10 11 12 13 14 15 16 17 18 19 20 21 22 23

000
FTUS41 KCLE 141720
TAFCLE
TAF
KCLE 141720Z 1418/1524 18007KT P6SM SKC
     FM150500 19014KT P6SM FEW100 WS020/22045KT
     FM151000 21018G26KT P6SM BKN028
     FM151500 22020G30KT P6SM VCSH BKN030
      TEMPO 1517/1519 5SM -SHRA OVC020
     FM151900 25022G32KT P6SM BKN035
     FM152300 28022G32KT P6SM BKN035=

USA.gov is the U.S. government's official web portal to all federal, state and local government web resources and services.